Vining, Iowa
Current Conditions -  °F | °C
As of 2:15 AM on Thursday 29 Jan 2015 (Local Time) from KVTI Reporting Station
Haze Haze  
Wind Chill: 28°   Ceiling: 800
Heat Index: 35°   Visibility: 4mi
Dew Point: 33°   Wind: 9mph
Humidity: 91%   Direction: 330°NNW
Pressure: 29.79"   Gusts: NA
Location:  41.99°N, 92.38°W
Report Text: KVTI 290815Z AUTO 33008KT 4SM BR BKN008 OVC014 02/00 A2979 RMK AO2 T00170003
Loading
Personal Weather Stations






























Interactive Weather Map New forecast layout! Learn more

10-Day Weather Forecast

Advertisements
Track Severe Weather on mobile